M I D A S
Marine Information and Data Acquisition System
Tripno 764 of the Zeeleeuw from 2004-08-20 06:23:16 to 2004-08-20 11:06:25
Back to CruiseResearch ActivitiesStationsMapUnderway DataData graphs

EquipmentUnitsComment
TimeDGPSUTC
LatitudeDGPSDM.mWGS84
LongitudeDGPSDM.mWGS84
HeadingGyrodeg 
SOGDGPSknotsSpeed over ground
COGDGPSdegCourse over ground
DepthEcho soundermeters200 kHz
Missing or incorrect values are displayed as -999
Navigation data collected by the RV Zeeleeuw from 2004-08-20 06:23:16 to 2004-08-20 11:06:25
Time Latitude Longitude Heading SOG COG Depth
2004-08-20 06:24:24 51°13.542 2°56.176 116.4 4.1 107 11.3
2004-08-20 06:25:27 51°13.548 2°56.235 55.2 0.7 230 10.1
2004-08-20 06:26:27 51°13.544 2°56.219 32 1.4 25 -999
2004-08-20 06:27:28 51°13.538 2°56.219 18.3 0.2 21 -999
2004-08-20 06:28:28 51°13.534 2°56.226 345.8 2.3 159 -999
2004-08-20 06:29:27 51°13.547 2°56.183 301.4 4.7 297 10.5
2004-08-20 06:30:38 51°13.612 2°56 308.8 7.8 304 11.2
2004-08-20 06:31:48 51°13.701 2°55.791 310.9 8.4 308 13.6
2004-08-20 06:32:59 51°13.83 2°55.627 338.8 8.4 337 10.9
2004-08-20 06:34:13 51°13.996 2°55.512 341.1 9.3 336 12.4
2004-08-20 06:35:11 51°14.14 2°55.404 336.9 10.7 330 12.2
2004-08-20 06:36:27 51°14.319 2°55.152 318 12.2 311 11.4
2004-08-20 06:37:33 51°14.436 2°54.835 289.7 13.1 281 11.3
2004-08-20 06:38:31 51°14.436 2°54.528 265.6 8.5 261 11.3
2004-08-20 06:39:33 51°14.43 2°54.372 278.7 4.3 274 10.6
2004-08-20 06:40:43 51°14.435 2°54.272 275 2.4 273 10.4
2004-08-20 06:41:56 51°14.437 2°54.217 269.6 1.3 277 10.4
2004-08-20 06:42:54 51°14.44 2°54.193 274 0.9 291 10.3
2004-08-20 06:44:11 51°14.443 2°54.132 265 5.7 259 10.5
2004-08-20 06:45:09 51°14.38 2°53.909 244.6 12.5 241 10.2
2004-08-20 06:46:12 51°14.268 2°53.589 245.7 13.4 241 10.1
2004-08-20 06:47:12 51°14.155 2°53.282 243.9 13.4 240 10.1
2004-08-20 06:48:13 51°14.04 2°52.971 243.8 13.4 240 10.9
2004-08-20 06:49:12 51°13.931 2°52.669 244.9 13.4 240 10.8
2004-08-20 06:50:15 51°13.813 2°52.345 244.2 13.6 240 11
2004-08-20 06:51:16 51°13.7 2°52.03 244.8 13.5 240 11
2004-08-20 06:52:25 51°13.57 2°51.67 245.2 13.5 240 11
2004-08-20 06:53:30 51°13.45 2°51.331 245.1 13.7 241 11.2
2004-08-20 06:54:30 51°13.339 2°51.016 244.7 13.5 240 11.4
2004-08-20 06:55:35 51°13.221 2°50.677 245.6 13.4 242 11.5
2004-08-20 06:56:36 51°13.108 2°50.357 244.8 13.7 241 11.5
2004-08-20 06:57:39 51°12.993 2°50.022 245.3 13.7 242 11.7
2004-08-20 06:58:39 51°12.884 2°49.705 245.7 13.6 242 11.8
2004-08-20 06:59:36 51°12.78 2°49.404 244.9 13.5 241 11.9
2004-08-20 07:00:38 51°12.667 2°49.077 244.6 13.7 241 12.1
2004-08-20 07:01:39 51°12.558 2°48.753 245.3 13.6 241 12.1
2004-08-20 07:02:42 51°12.444 2°48.42 245.5 13.6 242 12.4
2004-08-20 07:03:44 51°12.332 2°48.093 245.1 13.7 242 12.3
2004-08-20 07:04:44 51°12.226 2°47.772 245.2 13.6 242 12.6
2004-08-20 07:05:45 51°12.118 2°47.447 245 13.6 242 12.5
2004-08-20 07:06:50 51°12.003 2°47.099 245.7 13.7 243 12.6
2004-08-20 07:07:50 51°11.897 2°46.776 245.3 13.8 243 12.4
2004-08-20 07:08:56 51°11.782 2°46.418 244.8 13.8 243 12.5
2004-08-20 07:09:56 51°11.678 2°46.092 245.6 13.8 244 12.4
2004-08-20 07:10:57 51°11.569 2°45.761 245.4 13.9 242 12.2
2004-08-20 07:12:00 51°11.459 2°45.42 245.2 13.8 243 12
2004-08-20 07:13:00 51°11.356 2°45.093 245.9 13.8 244 11.7
2004-08-20 07:14:00 51°11.253 2°44.766 245.1 13.8 243 11.5
2004-08-20 07:15:00 51°11.149 2°44.441 245.3 13.7 244 11.2
2004-08-20 07:16:02 51°11.044 2°44.104 245.5 13.8 244 11
2004-08-20 07:17:06 51°10.934 2°43.754 245.9 13.8 245 10.7
2004-08-20 07:18:07 51°10.834 2°43.418 248.8 13.8 250 10.5
2004-08-20 07:19:05 51°10.824 2°43.064 274.5 14 272 11.1
2004-08-20 07:20:05 51°10.842 2°42.693 277.9 14.1 275 11.7
2004-08-20 07:21:04 51°10.87 2°42.329 281.7 14.1 279 12.2
2004-08-20 07:22:07 51°10.904 2°41.943 281.2 14 278 12.3
2004-08-20 07:23:07 51°10.891 2°41.586 251.1 13.6 246 12.1
2004-08-20 07:24:04 51°10.773 2°41.299 230.5 13.7 231 12.1
2004-08-20 07:25:15 51°10.597 2°40.972 228.9 13.7 230 12
2004-08-20 07:26:16 51°10.448 2°40.687 229.3 13.8 230 12.1
2004-08-20 07:27:20 51°10.293 2°40.387 230.1 13.8 232 11.7
2004-08-20 07:28:26 51°10.134 2°40.072 229.6 13.8 231 11.2
2004-08-20 07:29:31 51°9.978 2°39.763 230 13.7 231 10.5
2004-08-20 07:30:31 51°9.834 2°39.476 230.7 13.8 232 10.3
2004-08-20 07:31:36 51°9.705 2°39.141 249.7 13.7 256 10.1
2004-08-20 07:32:36 51°9.803 2°38.828 311.3 13.9 307 11.3
2004-08-20 07:33:36 51°9.947 2°38.532 312.6 14.1 308 14.1
2004-08-20 07:34:36 51°10.094 2°38.24 313.2 14 309 15.9
2004-08-20 07:35:36 51°10.191 2°37.913 284.6 14 280 16.2
2004-08-20 07:36:35 51°10.144 2°37.57 239.2 13.8 237 17.2
2004-08-20 07:37:40 51°9.994 2°37.249 231.5 14 233 17
2004-08-20 07:38:45 51°9.843 2°36.929 231.6 14 233 16.4
2004-08-20 07:39:44 51°9.705 2°36.635 232.1 14.1 234 16.2
2004-08-20 07:40:44 51°9.566 2°36.334 231.9 14.1 233 16
2004-08-20 07:41:52 51°9.464 2°35.952 264.9 14.1 266 15.5
2004-08-20 07:42:53 51°9.55 2°35.611 314.5 14 312 16.7
2004-08-20 07:43:54 51°9.743 2°35.403 340 13.7 334 17.8
2004-08-20 07:45:00 51°9.978 2°35.289 0.4 13.3 355 12.7
2004-08-20 07:46:02 51°10.202 2°35.313 19.4 13.1 15 10.5
2004-08-20 07:47:02 51°10.383 2°35.499 42.9 12.9 38 10.1
2004-08-20 07:48:02 51°10.551 2°35.711 42.7 12.9 39 9.7
2004-08-20 07:49:04 51°10.729 2°35.93 42.5 13.1 38 10
2004-08-20 07:50:19 51°10.917 2°36.241 49.8 13.1 43 10.6
2004-08-20 07:51:16 51°11.062 2°36.473 48.3 13.1 43 11.3
2004-08-20 07:52:20 51°11.234 2°36.722 45.6 13 43 11.8
2004-08-20 07:53:20 51°11.392 2°36.957 48.9 13 48 12.4
2004-08-20 07:54:28 51°11.564 2°37.229 49.3 12.8 47 12.8
2004-08-20 07:55:34 51°11.733 2°37.492 48.1 12.9 45 13.1
2004-08-20 07:56:36 51°11.89 2°37.737 48.1 12.7 44 12.9
2004-08-20 07:57:46 51°12.074 2°38.01 45.8 13 41 12.9
2004-08-20 07:58:47 51°12.232 2°38.253 49.1 13.2 49 12.6
2004-08-20 07:59:47 51°12.392 2°38.483 46.6 12.9 41 12.6
2004-08-20 08:00:47 51°12.556 2°38.704 44.9 12.9 44 12.5
2004-08-20 08:01:45 51°12.721 2°38.905 39.8 13.1 34 12.5
2004-08-20 08:02:44 51°12.906 2°39.072 30.9 12.9 25 13.1
2004-08-20 08:03:47 51°13.132 2°39.135 14.5 13.3 7 13.3
2004-08-20 08:04:47 51°13.351 2°39.176 12.4 13.2 6 14.2
2004-08-20 08:05:44 51°13.561 2°39.177 6.7 13.4 358 13.5
2004-08-20 08:06:53 51°13.818 2°39.158   13.4 351 13.3
2004-08-20 08:07:54 51°14.04 2°39.074 346.2 13.3 337 12.5
2004-08-20 08:08:54 51°14.196 2°38.827 305.8 13.8 299 13
2004-08-20 08:09:54 51°14.236 2°38.47 272.5 13.9 268 16.2
2004-08-20 08:10:53 51°14.181 2°38.123 252.5 13.9 250 17.6
2004-08-20 08:11:58 51°14.102 2°37.744 254.7 13.8 253 18.7
2004-08-20 08:12:59 51°14.033 2°37.383 254 14.1 251 18.6
2004-08-20 08:14:00 51°13.953 2°37.027 250.4 14 249 18.5
2004-08-20 08:15:00 51°13.864 2°36.681 249 14.1 247 18.5
2004-08-20 08:16:05 51°13.769 2°36.305 249.3 14.2 248 18
2004-08-20 08:17:05 51°13.661 2°35.974 243.4 14.1 242 18
2004-08-20 08:18:05 51°13.552 2°35.644 243.1 14 242 15.2
2004-08-20 08:19:05 51°13.422 2°35.337 232.7 14 232 15.7
2004-08-20 08:20:05 51°13.28 2°35.043 233.7 14 233 15.7
2004-08-20 08:21:04 51°13.139 2°34.755 233.7 14.1 232 16.7
2004-08-20 08:22:08 51°12.987 2°34.441 234 14 233 16.4
2004-08-20 08:23:09 51°12.842 2°34.145 234.4 13.9 232 16
2004-08-20 08:24:09 51°12.702 2°33.851 234.6 13.9 234 15.8
2004-08-20 08:25:09 51°12.576 2°33.542 239.2 14 237 15.1
2004-08-20 08:26:09 51°12.448 2°33.231 238.9 14 238 14.9
2004-08-20 08:27:09 51°12.333 2°32.907 245.3 14.1 243 14.4
2004-08-20 08:28:09 51°12.224 2°32.576 245.3 14.1 242 14.4
2004-08-20 08:29:09 51°12.113 2°32.244 244 14.2 241 15.2
2004-08-20 08:30:09 51°12 2°31.91 244.8 14.3 243 15.1
2004-08-20 08:31:14 51°11.892 2°31.541 249.3 13.9 245 15.6
2004-08-20 08:32:13 51°11.801 2°31.204 250 14.2 247 16.6
2004-08-20 08:33:14 51°11.706 2°30.855 249.6 14.2 247 17
2004-08-20 08:34:13 51°11.617 2°30.515 251.4 14.2 249 18.2
2004-08-20 08:35:12 51°11.532 2°30.173 251.2 14.2 248 17.9
2004-08-20 08:36:20 51°11.435 2°29.773 252 14.3 249 16.3
2004-08-20 08:37:20 51°11.355 2°29.415 253.8 14.4 252 20.2
2004-08-20 08:38:24 51°11.272 2°29.029 255.1 14.5 252 20.4
2004-08-20 08:39:23 51°11.202 2°28.668 255.2 14.6 252 19.1
2004-08-20 08:40:28 51°11.125 2°28.268 254.9 14.5 252 19.4
2004-08-20 08:41:28 51°11.058 2°27.897 256 14.7 254 19.3
2004-08-20 08:42:33 51°10.987 2°27.492 257.2 14.6 256 19.5
2004-08-20 08:43:33 51°10.927 2°27.116 257.2 14.7 256 20
2004-08-20 08:44:33 51°10.873 2°26.736 259.6 14.7 258 19.4
2004-08-20 08:45:34 51°10.842 2°26.344 270 14.7 267 18.9
2004-08-20 08:46:33 51°10.829 2°25.963 269.7 14.7 266 17.2
2004-08-20 08:47:32 51°10.815 2°25.581 269.1 14.6 267 14.8
2004-08-20 08:48:33 51°10.877 2°25.208 303.3 14.2 301 12.5
2004-08-20 08:49:33 51°11.041 2°24.941 329.1 13.9 321 22.1
2004-08-20 08:50:36 51°11.234 2°24.713 335.6 13.6 325 24.5
2004-08-20 08:51:36 51°11.431 2°24.548 346.3 13.2 338 24.3
2004-08-20 08:52:36 51°11.64 2°24.475 3 12.9 356 24
2004-08-20 08:53:36 51°11.841 2°24.531 21.1 12.2 15 25
2004-08-20 08:54:36 51°12.033 2°24.646 30.2 12.3 26 25.9
2004-08-20 08:55:36 51°12.206 2°24.824 40.1 12.4 35 25.6
2004-08-20 08:56:36 51°12.375 2°25.007 38.4 11.9 40 25.3
2004-08-20 08:57:40 51°12.552 2°25.215 40.9 12.1 37 24.7
2004-08-20 08:58:47 51°12.733 2°25.43 38.7 11.9 34 24.5
2004-08-20 08:59:46 51°12.893 2°25.625 40 12.1 37 25.1
2004-08-20 09:00:48 51°13.062 2°25.828 39.8 12.3 36 25.7
2004-08-20 09:01:50 51°13.236 2°26.021 39.2 12 39 26
2004-08-20 09:02:55 51°13.413 2°26.231 40.3 12.3 38 24.9
2004-08-20 09:04:00 51°13.581 2°26.447 46.1 12.1 42 25.9
2004-08-20 09:05:00 51°13.741 2°26.639 41.9 11.9 33 25.8
2004-08-20 09:06:00 51°13.903 2°26.829 41.5 12 37 26.3
2004-08-20 09:07:00 51°14.066 2°27.024 41.5 12.5 38 26.6
2004-08-20 09:08:05 51°14.241 2°27.237 42.5 12 39 27.2
2004-08-20 09:09:06 51°14.399 2°27.442 42.9 12.1 40 27.1
2004-08-20 09:10:12 51°14.58 2°27.658 38.3 12.3 38 27
2004-08-20 09:11:12 51°14.744 2°27.848 38.3 12.3 38 27
2004-08-20 09:12:12 51°14.905 2°28.037 40.3 12.1 31 27.5
2004-08-20 09:13:16 51°15.077 2°28.247 40.6 12.3 32 27.7
2004-08-20 09:14:25 51°15.263 2°28.465 45.2 12.4 43 27.3
2004-08-20 09:15:30 51°15.437 2°28.68 42.8 12.3 40 27.2
2004-08-20 09:16:31 51°15.598 2°28.886 45.6 12.2 39 27.5
2004-08-20 09:17:31 51°15.753 2°29.102 45.1 12.7 40 27.8
2004-08-20 09:18:40 51°15.93 2°29.346 43.4 12 42 27.2
2004-08-20 09:19:46 51°16.096 2°29.58 44.2 12.1 41 27.7
2004-08-20 09:20:45 51°16.245 2°29.787 43.2 12.1 35 26.9
2004-08-20 09:21:46 51°16.401 2°30.001 48.2 12.1 41 27.1
2004-08-20 09:22:49 51°16.561 2°30.225 47.6 12.2 41 27.1
2004-08-20 09:23:50 51°16.717 2°30.436 44.9 12.3 35 26.9
2004-08-20 09:24:50 51°16.864 2°30.645 45.2 11.4 44 24.6
2004-08-20 09:25:56 51°17.03 2°30.876 45.3 12.3 43 25.4
2004-08-20 09:27:05 51°17.213 2°31.113 43.8 12.3 40 26.5
2004-08-20 09:28:09 51°17.372 2°31.343 46.5 11.7 48 25.9
2004-08-20 09:29:13 51°17.531 2°31.561 46 12.2 36 25.7
2004-08-20 09:30:20 51°17.7 2°31.791 46.1 12.2 39 25.2
2004-08-20 09:31:20 51°17.857 2°32 46.1 12 42 25.4
2004-08-20 09:32:25 51°18.022 2°32.243 44.2 12.5 38 24.7
2004-08-20 09:33:25 51°18.171 2°32.472 49.1 12.1 50 24.8
2004-08-20 09:34:24 51°18.316 2°32.682 47.9 12.2 39 24.2
2004-08-20 09:35:24 51°18.462 2°32.904 47.5 12.3 47 23.7
2004-08-20 09:36:30 51°18.625 2°33.149 46.5 12.8 39 23.9
2004-08-20 09:37:30 51°18.772 2°33.372 49.9 12.1 45 23.5
2004-08-20 09:38:30 51°18.924 2°33.578 43.5 12 37 23.1
2004-08-20 09:39:29 51°19.068 2°33.788 46.3 11.8 42 21
2004-08-20 09:40:34 51°19.231 2°34.026 46.5 12.2 40 17.9
2004-08-20 09:41:33 51°19.382 2°34.233 46.9 12.1 37 13.2
2004-08-20 09:42:32 51°19.527 2°34.437 50.1 11.7 41 14.8
2004-08-20 09:43:33 51°19.677 2°34.647 46.9 11.9 41 14.9
2004-08-20 09:44:33 51°19.825 2°34.857 46.4 12.1 39 15.3
2004-08-20 09:45:37 51°19.984 2°35.082 44.2 11.7 40 15
2004-08-20 09:46:37 51°20.134 2°35.295 45.7 11.8 42 16.8
2004-08-20 09:47:37 51°20.285 2°35.502 48.8 12.2 43 17.9
2004-08-20 09:48:36 51°20.43 2°35.718 50.5 11.9 47 19.2
2004-08-20 09:49:36 51°20.551 2°35.963 65.3 11.9 56 19.7
2004-08-20 09:50:37 51°20.602 2°36.266 87.3 11.4 88 19.8
2004-08-20 09:51:36 51°20.579 2°36.576 95.4 11.9 97 20.9
2004-08-20 09:52:36 51°20.567 2°36.899 89.9 12.1 95 22.2
2004-08-20 09:53:37 51°20.563 2°37.231 92.4 12 85 22.8
2004-08-20 09:54:40 51°20.565 2°37.571 88 12.1 86 21.9
2004-08-20 09:55:39 51°20.567 2°37.896 92.4 12.2 93 22.5
2004-08-20 09:56:39 51°20.56 2°38.226 94.3 12.6 91 23.4
2004-08-20 09:57:40 51°20.555 2°38.553 89.7 11.8 93 23.2
2004-08-20 09:58:40 51°20.547 2°38.874 91.4 12.5 93 24.4
2004-08-20 09:59:44 51°20.54 2°39.222 87.6 12.5 84 24.2
2004-08-20 10:00:43 51°20.526 2°39.543 91.4 12.3 94 25
2004-08-20 10:01:56 51°20.516 2°39.945 88.4 12.6 87 27
2004-08-20 10:02:56 51°20.519 2°40.278 92.6 12.8 95 26.3
2004-08-20 10:04:00 51°20.507 2°40.629 92.1 12.3 95 27
2004-08-20 10:05:00 51°20.493 2°40.956 94.2 12.4 97 27.7
2004-08-20 10:06:14 51°20.481 2°41.36 93.2 13.3 92 21.6
2004-08-20 10:07:14 51°20.469 2°41.691 93.8 12.6 93 20.3
2004-08-20 10:08:14 51°20.463 2°42.02 92.8 12.4 91 19.3
2004-08-20 10:09:12 51°20.456 2°42.331 95.9 11.9 96 19.3
2004-08-20 10:10:16 51°20.431 2°42.68 95.7 12.4 95 22.1
2004-08-20 10:11:25 51°20.403 2°43.058 91.9 12.5 97 25.1
2004-08-20 10:12:24 51°20.377 2°43.381 93.3 12.1 93 26.1
2004-08-20 10:13:24 51°20.359 2°43.706 95.5 12.4 96 26.7
2004-08-20 10:14:28 51°20.327 2°44.056 100 12.3 105 26.8
2004-08-20 10:15:31 51°20.293 2°44.4 97.2 12.8 98 26
2004-08-20 10:16:34 51°20.259 2°44.744 97.8 12.3 93 24.5
2004-08-20 10:17:36 51°20.242 2°45.083 93.6 12.2 94 23.5
2004-08-20 10:18:46 51°20.212 2°45.462 94.3 11.9 92 21.8
2004-08-20 10:19:47 51°20.195 2°45.787 97.1 12.1 97 14.9
2004-08-20 10:20:48 51°20.17 2°46.116 95.9 12 93 14.8
2004-08-20 10:21:47 51°20.15 2°46.435 97.8 12.5 98 13.9
2004-08-20 10:22:47 51°20.119 2°46.768 98.4 12.3 97 17
2004-08-20 10:23:49 51°20.089 2°47.107 95 12.8 96 18.5
2004-08-20 10:25:00 51°20.057 2°47.488 96.1 12.2 97 20.9
2004-08-20 10:26:01 51°20.031 2°47.817 94.1 11.5 95 22
2004-08-20 10:27:02 51°19.993 2°48.15 101.6 12.8 108 22
2004-08-20 10:28:00 51°19.845 2°48.369 148.8 13.4 160 21.8
2004-08-20 10:29:00 51°19.622 2°48.438 170 13.6 173 20
2004-08-20 10:30:08 51°19.358 2°48.469 176.1 13.9 177 17.7
2004-08-20 10:31:07 51°19.158 2°48.59 141 12.8 138 15.6
2004-08-20 10:32:07 51°19.014 2°48.85 124.2 13.1 126 13.8
2004-08-20 10:33:12 51°18.878 2°49.151 122.6 12.8 121 11.1
2004-08-20 10:34:12 51°18.75 2°49.428 126.2 12.8 127 10.3
2004-08-20 10:35:12 51°18.617 2°49.705 123.5 13.6 128 12
2004-08-20 10:36:25 51°18.457 2°50.046 123.1 12.9 121 13.8
2004-08-20 10:37:27 51°18.318 2°50.332 125.5 13 125 13.9
2004-08-20 10:38:29 51°18.182 2°50.621 126.3 12.9 127 13.2
2004-08-20 10:39:32 51°18.04 2°50.916 125.2 13.6 128 12.4
2004-08-20 10:40:33 51°17.901 2°51.201 126 13.1 124 11
2004-08-20 10:41:40 51°17.751 2°51.511 129.3 13.1 131 9.8
2004-08-20 10:42:40 51°17.604 2°51.777 132.7 12.9 136 10.2
2004-08-20 10:43:42 51°17.436 2°52.035 140.4 13.4 139 10.5
2004-08-20 10:44:42 51°17.23 2°52.204 158.4 14.4 159 10.4
2004-08-20 10:45:48 51°16.989 2°52.331 161.1 13.9 161 9.7
2004-08-20 10:46:58 51°16.736 2°52.469 159.8 13.9 159 9.7
2004-08-20 10:47:57 51°16.523 2°52.592 160.9 14 158 11.6
2004-08-20 10:48:59 51°16.299 2°52.709 166.9 13.6 165 12.4
2004-08-20 10:49:58 51°16.101 2°52.86 149.3 13.7 149 12.3
2004-08-20 10:51:00 51°15.895 2°53.026 153.4 13.5 153 11.7
2004-08-20 10:51:59 51°15.696 2°53.179 152.4 13.7 151 11.4
2004-08-20 10:53:00 51°15.494 2°53.339 150.5 11.9 151 10.8
2004-08-20 10:54:00 51°15.378 2°53.414 165.8 5.1 166 10.6
2004-08-20 10:54:59 51°15.317 2°53.434 166.9 2.9 161 10.5
2004-08-20 10:56:07 51°15.278 2°53.451 161.4 1.7 168 10.2
2004-08-20 10:57:12 51°15.251 2°53.46 161.8 1.3 170 10.3
2004-08-20 10:58:12 51°15.234 2°53.466 156.3 0.9 163 10.1
2004-08-20 10:59:18 51°15.187 2°53.512 147.3 5.3 147 10.2
2004-08-20 11:00:17 51°15.071 2°53.681 135.1 11.6 137 9.7
2004-08-20 11:01:18 51°14.926 2°53.914 134.9 12.1 135 9.6
2004-08-20 11:02:18 51°14.79 2°54.159 132.8 12.2 133 10.1
2004-08-20 11:03:16 51°14.666 2°54.405 129.7 12.1 126 10.3
2004-08-20 11:04:18 51°14.538 2°54.669 128.5 12 127 10.3
2004-08-20 11:05:18 51°14.417 2°54.924 127.6 11.6 126 11
2004-08-20 11:06:18 51°14.311 2°55.169 129.1 11 126 11.1